Time;durP1;ratioP1;P1;durP2;ratioP2;P2;SDS_P1;SDS_P2;PMS_P1;PMS_P2;Temp;Humidity;BMP_temperature;BMP_pressure;BME280_temperature;BME280_humidity;BME280_pressure;Samples;Min_cycle;Max_cycle;Signal;HPM_P1;HPM_P2
2021/07/15 00:00:31;;;;;;;17.87;8.80;;;;;;;23.94;69.70;99468.07;1794206;80;20920;-70
2021/07/15 00:03:02;;;;;;;12.75;8.30;;;;;;;23.79;70.32;99468.79;1794004;79;20967;-69
2021/07/15 00:05:35;;;;;;;16.15;8.68;;;;;;;23.74;70.93;99468.42;1773361;80;20976;-69
2021/07/15 00:08:01;;;;;;;13.48;7.92;;;;;;;23.76;71.30;99472.44;1774995;80;21015;-70
2021/07/15 00:10:38;;;;;;;12.63;7.78;;;;;;;23.80;71.24;99471.78;1794253;79;21433;-72
2021/07/15 00:13:07;;;;;;;10.82;8.23;;;;;;;23.81;71.35;99474.81;1793601;79;20952;-70
2021/07/15 00:15:39;;;;;;;13.28;9.30;;;;;;;23.83;71.47;99474.39;1794215;80;20856;-70
2021/07/15 00:18:09;;;;;;;10.43;7.85;;;;;;;23.87;71.45;99471.53;1794472;80;20829;-70
2021/07/15 00:20:43;;;;;;;9.10;8.15;;;;;;;23.88;71.32;99466.92;1794234;79;20857;-70
2021/07/15 00:23:10;;;;;;;15.83;8.53;;;;;;;23.89;71.49;99465.70;1794138;79;21086;-69
2021/07/15 00:25:38;;;;;;;13.58;8.45;;;;;;;23.89;71.63;99467.11;1794265;80;20916;-69
2021/07/15 00:28:05;;;;;;;18.20;8.98;;;;;;;23.86;71.38;99468.53;1795761;79;21444;-70
2021/07/15 00:30:34;;;;;;;13.30;9.13;;;;;;;23.85;71.60;99473.98;1796848;79;20964;-69
2021/07/15 00:33:01;;;;;;;16.60;8.73;;;;;;;23.85;71.61;99468.35;1797308;79;21408;-70
2021/07/15 00:35:33;;;;;;;12.10;8.10;;;;;;;23.83;71.70;99469.55;1796920;79;21250;-69
2021/07/15 00:38:03;;;;;;;17.45;9.43;;;;;;;23.82;71.81;99477.80;1796754;79;20908;-69
2021/07/15 00:40:30;;;;;;;12.63;9.18;;;;;;;23.79;71.85;99471.60;1797027;79;21067;-70
2021/07/15 00:43:00;;;;;;;13.62;8.63;;;;;;;23.71;71.84;99472.87;1796784;79;20928;-70
2021/07/15 00:45:28;;;;;;;13.03;8.43;;;;;;;23.64;72.15;99471.50;1796934;79;20955;-69
2021/07/15 00:47:54;;;;;;;11.65;8.55;;;;;;;23.63;72.61;99468.51;1797468;79;20985;-70
2021/07/15 00:50:24;;;;;;;12.43;8.15;;;;;;;23.61;72.87;99473.11;1796256;79;21523;-70
2021/07/15 00:52:54;;;;;;;13.95;8.83;;;;;;;23.61;73.04;99474.52;1795949;78;21473;-70
2021/07/15 00:55:32;;;;;;;15.43;8.38;;;;;;;23.62;72.98;99471.91;1829739;78;20904;-71
2021/07/15 00:58:01;;;;;;;16.67;8.98;;;;;;;23.65;72.83;99469.68;1829548;77;20987;-70
2021/07/15 01:00:30;;;;;;;11.50;9.38;;;;;;;23.64;72.72;99468.09;1813862;78;21117;-69
2021/07/15 01:02:58;;;;;;;11.38;8.85;;;;;;;23.64;72.72;99463.06;1804444;78;20968;-69
2021/07/15 01:05:35;;;;;;;12.70;9.23;;;;;;;23.65;72.57;99464.66;1808787;78;20967;-69
2021/07/15 01:08:03;;;;;;;17.73;9.75;;;;;;;23.64;72.51;99470.09;1829514;78;21011;-69
2021/07/15 01:10:34;;;;;;;20.37;9.18;;;;;;;23.62;72.39;99465.48;1829530;78;21006;-69
2021/07/15 01:13:15;;;;;;;16.17;9.65;;;;;;;23.55;72.26;99467.73;1829739;78;21068;-70
2021/07/15 01:16:08;;;;;;;12.15;8.80;;;;;;;23.50;72.51;99467.56;1828508;78;20865;-69
2021/07/15 01:19:05;;;;;;;12.85;9.15;;;;;;;23.50;72.56;99467.56;1829665;78;21455;-69
2021/07/15 01:21:55;;;;;;;16.62;9.88;;;;;;;23.50;72.59;99476.00;1829436;78;21496;-70
2021/07/15 01:25:08;;;;;;;15.85;9.78;;;;;;;23.45;72.82;99469.41;1829513;78;21000;-69
2021/07/15 01:27:52;;;;;;;13.38;9.48;;;;;;;23.40;72.78;99484.69;1828858;77;20873;-70
2021/07/15 01:30:33;;;;;;;11.50;9.38;;;;;;;23.35;72.94;99478.84;1826650;78;20940;-68
2021/07/15 01:33:23;;;;;;;13.10;9.35;;;;;;;23.35;73.07;99480.25;1826697;78;21051;-70
2021/07/15 01:36:01;;;;;;;16.15;9.50;;;;;;;23.34;73.19;99474.44;1826651;78;21012;-70
2021/07/15 01:38:33;;;;;;;14.73;8.93;;;;;;;23.34;73.24;99475.84;1779695;78;20948;-69
2021/07/15 01:41:05;;;;;;;15.65;9.58;;;;;;;23.34;73.17;99470.23;1826856;78;21015;-70
2021/07/15 01:43:46;;;;;;;15.05;10.00;;;;;;;23.32;73.31;99466.24;1826310;78;20896;-70
2021/07/15 01:46:15;;;;;;;18.92;10.98;;;;;;;23.29;73.34;99464.22;1806351;78;20892;-69
2021/07/15 01:48:42;;;;;;;15.78;9.93;;;;;;;23.29;73.38;99469.84;1806167;78;20944;-70
2021/07/15 01:51:09;;;;;;;13.75;9.83;;;;;;;23.25;73.22;99474.10;1826925;78;20849;-70
2021/07/15 01:53:36;;;;;;;14.45;8.85;;;;;;;23.21;73.12;99471.91;1826318;78;21138;-70
2021/07/15 01:56:03;;;;;;;12.63;9.50;;;;;;;23.13;73.45;99472.55;1826675;78;20900;-69
2021/07/15 01:58:33;;;;;;;13.03;10.15;;;;;;;23.12;73.60;99468.72;1826617;78;21059;-68
2021/07/15 02:01:00;;;;;;;11.57;9.48;;;;;;;23.15;73.65;99472.14;1806126;78;21449;-70
2021/07/15 02:03:27;;;;;;;16.27;10.48;;;;;;;23.17;73.67;99477.53;1806020;78;20952;-70
2021/07/15 02:05:57;;;;;;;18.17;10.45;;;;;;;23.20;73.64;99482.33;1806590;78;21128;-68
2021/07/15 02:08:25;;;;;;;17.00;10.15;;;;;;;23.21;73.57;99488.76;1762757;81;21047;-69
2021/07/15 02:10:53;;;;;;;16.05;9.30;;;;;;;23.22;73.49;99498.19;1765483;81;21464;-69
2021/07/15 02:13:22;;;;;;;18.50;9.33;;;;;;;23.19;73.54;99485.55;1744123;81;20997;-70
2021/07/15 02:15:50;;;;;;;14.45;9.13;;;;;;;23.19;73.75;99491.17;1743828;81;21000;-68
2021/07/15 02:18:22;;;;;;;17.32;10.58;;;;;;;23.17;73.93;99483.15;1764835;80;20977;-70
2021/07/15 02:20:55;;;;;;;14.87;10.70;;;;;;;23.17;73.78;99479.53;1765311;81;21528;-69
2021/07/15 02:23:24;;;;;;;16.75;9.75;;;;;;;23.17;73.84;99488.77;1765267;80;20996;-70
2021/07/15 02:25:54;;;;;;;20.05;9.70;;;;;;;23.16;73.89;99485.77;1765450;80;20910;-70
2021/07/15 02:28:24;;;;;;;13.60;9.30;;;;;;;23.14;74.10;99488.19;1738338;81;20949;-70
2021/07/15 02:31:05;;;;;;;18.20;10.82;;;;;;;23.14;74.23;99483.16;1759378;81;21098;-68
2021/07/15 02:33:33;;;;;;;13.35;10.90;;;;;;;23.14;74.16;99481.76;1759364;81;20966;-70
2021/07/15 02:36:02;;;;;;;14.70;9.85;;;;;;;23.17;74.08;99479.53;1759426;81;21391;-71
2021/07/15 02:38:32;;;;;;;15.55;10.10;;;;;;;23.20;74.01;99492.79;1759185;81;21068;-68
2021/07/15 02:41:00;;;;;;;18.20;10.58;;;;;;;23.20;74.09;99490.76;1759498;81;20866;-70
2021/07/15 02:43:27;;;;;;;16.05;10.32;;;;;;;23.23;73.92;99487.75;1759844;81;22053;-69
2021/07/15 02:45:56;;;;;;;15.20;10.25;;;;;;;23.23;73.94;99482.91;1738549;81;21010;-69
2021/07/15 02:48:24;;;;;;;13.72;10.70;;;;;;;23.22;74.14;99484.13;1759552;81;20981;-69
2021/07/15 02:50:52;;;;;;;11.95;10.65;;;;;;;23.20;74.30;99491.38;1759466;81;20886;-71
2021/07/15 02:53:21;;;;;;;14.50;10.43;;;;;;;23.21;74.26;99491.56;1759534;81;20906;-71
2021/07/15 02:56:16;;;;;;;12.28;9.58;;;;;;;23.21;74.33;99488.16;1759626;81;21778;-69
2021/07/15 02:58:51;;;;;;;11.22;9.45;;;;;;;23.19;74.25;99493.38;1759890;80;20910;-69
2021/07/15 03:01:18;;;;;;;15.58;10.15;;;;;;;23.20;74.99;99488.58;1759466;80;20974;-70
2021/07/15 03:04:26;;;;;;;26.48;10.53;;;;;;;23.22;75.11;99488.34;1759651;81;20974;-70
2021/07/15 03:06:54;;;;;;;37.75;10.50;;;;;;;23.25;75.25;99491.55;1759444;81;21041;-69
2021/07/15 03:09:28;;;;;;;108.83;14.80;;;;;;;23.22;75.86;99495.38;1759691;81;20966;-70
2021/07/15 03:12:06;;;;;;;40.70;11.12;;;;;;;23.19;76.34;99490.58;1759865;81;20945;-71
2021/07/15 03:14:40;;;;;;;54.80;12.03;;;;;;;23.23;76.66;99487.75;1759558;81;20961;-69
2021/07/15 03:17:11;;;;;;;39.27;12.70;;;;;;;23.30;76.58;99484.11;1759523;81;21445;-70
2021/07/15 03:19:45;;;;;;;26.97;11.88;;;;;;;23.38;76.18;99486.27;1739072;81;20978;-69
2021/07/15 03:22:13;;;;;;;16.27;10.50;;;;;;;23.47;75.81;99489.47;1759629;80;21008;-69
2021/07/15 03:24:47;;;;;;;23.85;10.88;;;;;;;23.55;75.10;99492.44;1759586;81;20919;-68
2021/07/15 03:27:15;;;;;;;19.77;10.50;;;;;;;23.65;75.02;99491.36;1759810;81;21049;-69
2021/07/15 03:29:44;;;;;;;18.10;12.13;;;;;;;23.67;74.78;99494.57;1762077;81;21013;-69
2021/07/15 03:32:11;;;;;;;19.67;11.65;;;;;;;23.68;74.31;99496.16;1743125;81;21080;-69
2021/07/15 03:34:37;;;;;;;15.00;11.00;;;;;;;23.66;74.11;99500.02;1718996;81;21490;-71
2021/07/15 03:37:11;;;;;;;17.35;10.00;;;;;;;23.65;74.05;99497.80;1762398;81;20870;-70
2021/07/15 03:39:39;;;;;;;12.53;9.63;;;;;;;23.70;74.22;99502.18;1743974;81;20905;-70
2021/07/15 03:42:07;;;;;;;15.43;10.65;;;;;;;23.77;74.40;99492.30;1743757;81;20938;-69
2021/07/15 03:44:33;;;;;;;13.98;9.98;;;;;;;23.87;73.89;99497.66;1762539;81;20953;-70
2021/07/15 03:47:01;;;;;;;14.68;10.48;;;;;;;23.99;73.26;99492.14;1762623;81;20961;-70
2021/07/15 03:49:29;;;;;;;18.67;11.08;;;;;;;24.10;72.76;99494.89;1762606;81;21467;-70
2021/07/15 03:51:58;;;;;;;14.98;10.25;;;;;;;24.21;72.41;99498.25;1762339;81;20997;-69
2021/07/15 03:54:29;;;;;;;14.10;10.75;;;;;;;24.30;72.26;99501.38;1762518;81;21522;-69
2021/07/15 03:56:55;;;;;;;18.90;11.35;;;;;;;24.38;72.33;99507.13;1762615;81;20985;-69
2021/07/15 03:59:21;;;;;;;15.30;10.28;;;;;;;24.45;72.41;99502.67;1838494;78;22111;-69
2021/07/15 04:02:05;;;;;;;19.48;10.93;;;;;;;24.52;72.07;99507.61;1779290;80;20938;-70
2021/07/15 04:04:31;;;;;;;18.20;10.50;;;;;;;24.60;71.72;99504.73;1837929;78;21015;-69
2021/07/15 04:07:02;;;;;;;16.17;10.15;;;;;;;24.69;71.05;99512.06;1779545;80;21065;-70
2021/07/15 04:09:31;;;;;;;15.63;10.32;;;;;;;24.73;70.95;99510.03;1838174;78;20888;-69
2021/07/15 04:11:59;;;;;;;12.28;9.98;;;;;;;24.71;70.98;99514.46;1837859;78;20904;-69
2021/07/15 04:15:06;;;;;;;21.20;11.53;;;;;;;24.77;70.79;99511.41;1837791;78;20880;-69
2021/07/15 04:17:38;;;;;;;20.82;12.05;;;;;;;24.84;70.60;99506.30;1838085;78;20955;-70
2021/07/15 04:20:10;;;;;;;19.35;10.25;;;;;;;24.94;69.87;99499.78;1831887;78;20995;-69
2021/07/15 04:22:41;;;;;;;13.93;10.00;;;;;;;25.03;69.25;99502.88;1838224;77;20943;-69
2021/07/15 04:25:13;;;;;;;21.77;10.38;;;;;;;25.12;69.12;99494.53;1779867;80;21124;-69
2021/07/15 04:27:43;;;;;;;17.07;9.95;;;;;;;25.19;68.83;99504.31;1767685;81;22176;-69
2021/07/15 04:30:15;;;;;;;12.88;9.98;;;;;;;25.28;68.69;99493.94;1837213;78;20939;-69
2021/07/15 04:32:55;;;;;;;20.10;10.72;;;;;;;25.35;68.90;99493.82;1838008;78;21015;-70
2021/07/15 04:35:22;;;;;;;16.15;10.15;;;;;;;25.42;68.89;99494.97;1837983;78;20975;-69
2021/07/15 04:37:50;;;;;;;22.50;9.98;;;;;;;25.45;69.02;99492.70;1779555;80;21528;-70
2021/07/15 04:40:22;;;;;;;17.55;9.40;;;;;;;25.50;68.78;99493.02;1838069;78;21023;-70
2021/07/15 04:42:59;;;;;;;15.50;10.32;;;;;;;25.56;67.54;99491.94;1837761;77;21536;-69
2021/07/15 04:45:25;;;;;;;15.63;10.00;;;;;;;25.64;66.93;99482.17;1779398;80;20982;-70
2021/07/15 04:47:53;;;;;;;17.23;9.85;;;;;;;25.74;66.48;99482.45;1808235;78;21475;-69
2021/07/15 04:50:25;;;;;;;17.42;10.90;;;;;;;25.81;65.95;99485.15;1838230;78;21490;-70
2021/07/15 04:53:03;;;;;;;17.77;9.90;;;;;;;25.88;65.57;99477.19;1778638;80;20975;-70
2021/07/15 04:55:31;;;;;;;14.00;9.45;;;;;;;25.95;64.76;99476.30;1767930;81;21438;-70
2021/07/15 04:58:05;;;;;;;20.10;9.08;;;;;;;25.99;64.28;99477.83;1837974;78;21373;-70
2021/07/15 05:00:31;;;;;;;15.83;9.68;;;;;;;26.03;63.85;99477.78;1838036;78;21610;-71
2021/07/15 05:03:20;;;;;;;14.73;9.40;;;;;;;26.04;63.72;99478.55;1838006;78;21181;-71
2021/07/15 05:05:49;;;;;;;17.27;10.48;;;;;;;26.06;63.40;99476.11;1837927;78;20805;-71
2021/07/15 05:08:15;;;;;;;14.00;8.75;;;;;;;26.10;63.99;99481.09;1808094;78;20998;-71
2021/07/15 05:10:42;;;;;;;15.00;9.13;;;;;;;26.12;63.79;99477.20;1837901;78;20977;-70
2021/07/15 05:13:10;;;;;;;19.02;9.60;;;;;;;26.15;63.29;99473.55;1808558;78;20888;-70
2021/07/15 05:15:46;;;;;;;17.75;9.20;;;;;;;26.22;63.00;99475.45;1838303;78;21459;-71
2021/07/15 05:18:16;;;;;;;18.37;9.68;;;;;;;26.29;62.70;99477.35;1837721;78;20856;-70
2021/07/15 05:20:45;;;;;;;11.30;8.23;;;;;;;26.36;62.94;99478.64;1838153;78;21027;-70
2021/07/15 05:23:13;;;;;;;13.25;9.28;;;;;;;26.45;63.38;99478.90;1837923;78;20992;-70
2021/07/15 05:25:41;;;;;;;12.35;9.30;;;;;;;26.54;64.08;99478.95;1838012;78;21006;-70
2021/07/15 05:28:12;;;;;;;15.80;9.35;;;;;;;26.63;63.39;99479.80;1828090;78;20948;-69
2021/07/15 05:30:41;;;;;;;12.60;9.15;;;;;;;26.70;63.09;99471.20;1808959;78;20921;-70
2021/07/15 05:33:08;;;;;;;11.75;9.08;;;;;;;26.78;62.78;99471.84;1799191;78;20944;-69
2021/07/15 05:35:42;;;;;;;15.48;8.93;;;;;;;26.85;62.71;99480.19;1823083;78;21010;-70
2021/07/15 05:38:13;;;;;;;16.05;8.73;;;;;;;26.92;62.11;99482.85;1741656;81;20946;-70
2021/07/15 05:40:40;;;;;;;15.80;8.73;;;;;;;26.98;62.01;99477.50;1763831;81;20982;-70
2021/07/15 05:43:08;;;;;;;9.38;7.28;;;;;;;27.04;61.86;99478.60;1763408;81;20922;-70
2021/07/15 05:45:38;;;;;;;15.23;8.05;;;;;;;27.10;61.56;99474.05;1741363;82;20998;-69
2021/07/15 05:48:07;;;;;;;9.95;7.72;;;;;;;27.16;61.20;99476.38;1764109;81;20959;-70
2021/07/15 05:50:34;;;;;;;12.07;7.47;;;;;;;27.22;61.10;99477.44;1763723;81;20977;-71
2021/07/15 05:53:01;;;;;;;19.07;8.38;;;;;;;27.28;61.22;99479.92;1763938;81;21552;-71
2021/07/15 05:55:32;;;;;;;10.90;7.55;;;;;;;27.34;60.32;99481.63;1741953;82;21415;-69
2021/07/15 05:58:00;;;;;;;12.95;8.13;;;;;;;27.42;59.53;99475.19;1763795;81;20867;-70
2021/07/15 06:00:26;;;;;;;9.60;7.60;;;;;;;27.50;59.95;99475.84;1759178;81;20997;-70
2021/07/15 06:02:55;;;;;;;14.60;8.15;;;;;;;27.59;59.05;99476.02;1746432;81;20990;-70
2021/07/15 06:05:28;;;;;;;10.65;7.55;;;;;;;27.68;58.25;99475.42;1734994;82;21537;-70
2021/07/15 06:07:57;;;;;;;11.10;6.90;;;;;;;27.75;58.09;99476.70;1714358;82;21518;-69
2021/07/15 06:10:25;;;;;;;10.72;7.17;;;;;;;27.82;57.25;99478.57;1735012;82;21025;-70
2021/07/15 06:12:53;;;;;;;11.53;7.35;;;;;;;27.89;56.82;99475.58;1734302;82;20976;-70
2021/07/15 06:15:21;;;;;;;14.03;7.62;;;;;;;27.95;56.91;99475.21;1735413;82;20866;-70
2021/07/15 06:17:52;;;;;;;13.22;7.10;;;;;;;28.00;56.88;99468.83;1737954;81;21438;-69
2021/07/15 06:20:25;;;;;;;12.05;7.83;;;;;;;28.05;57.17;99462.64;1745472;80;20989;-70
2021/07/15 06:22:56;;;;;;;9.80;7.08;;;;;;;28.12;57.15;99465.30;1753129;81;20987;-70
2021/07/15 06:25:23;;;;;;;12.18;6.78;;;;;;;28.21;56.68;99461.84;1735221;82;20982;-70
2021/07/15 06:27:53;;;;;;;13.60;7.12;;;;;;;28.29;56.49;99465.27;1734894;82;20981;-68
2021/07/15 06:30:24;;;;;;;13.35;6.83;;;;;;;28.35;56.09;99466.38;1741440;82;21532;-71
2021/07/15 06:32:52;;;;;;;11.22;7.28;;;;;;;28.42;55.72;99463.33;1741262;82;21485;-71
2021/07/15 06:35:22;;;;;;;12.40;6.95;;;;;;;28.49;55.42;99454.48;1742563;82;21080;-70
2021/07/15 06:37:53;;;;;;;9.73;6.40;;;;;;;28.57;55.54;99452.23;1742581;81;20874;-71
2021/07/15 06:40:23;;;;;;;14.38;6.90;;;;;;;28.63;55.20;99446.99;1742778;82;21044;-71
2021/07/15 06:42:50;;;;;;;11.18;6.85;;;;;;;28.71;55.18;99451.05;1742193;82;22102;-69
2021/07/15 06:45:17;;;;;;;11.85;6.58;;;;;;;28.77;54.64;99452.08;1742762;82;21417;-70
2021/07/15 06:47:46;;;;;;;11.78;6.60;;;;;;;28.84;53.25;99451.08;1742870;82;20933;-70
2021/07/15 06:50:13;;;;;;;11.40;6.80;;;;;;;28.91;53.01;99449.47;1742519;81;21508;-69
2021/07/15 06:52:39;;;;;;;10.13;7.83;;;;;;;28.97;53.03;99449.72;1759627;80;21056;-69
2021/07/15 06:55:08;;;;;;;12.73;6.72;;;;;;;29.04;52.71;99445.27;1808538;78;21845;-71
2021/07/15 06:57:35;;;;;;;8.90;6.30;;;;;;;29.11;53.80;99449.31;1838303;78;20936;-71
2021/07/15 07:00:10;;;;;;;8.70;7.00;;;;;;;29.18;53.85;99440.41;1838051;78;20944;-70
2021/07/15 07:02:41;;;;;;;9.40;6.78;;;;;;;29.24;54.11;99433.72;1838311;78;21472;-71
2021/07/15 07:05:08;;;;;;;14.63;7.08;;;;;;;29.33;53.64;99430.22;1838339;78;21033;-71
2021/07/15 07:07:37;;;;;;;13.00;6.85;;;;;;;29.40;53.10;99432.84;1838125;78;21453;-70
2021/07/15 07:10:13;;;;;;;7.67;6.87;;;;;;;29.47;53.76;99436.69;1838498;78;20904;-71
2021/07/15 07:12:41;;;;;;;15.93;6.05;;;;;;;29.56;52.95;99443.91;1838081;77;20952;-71
2021/07/15 07:15:12;;;;;;;29.23;7.83;;;;;;;29.66;51.53;99452.55;1838031;77;20864;-70
2021/07/15 07:17:40;;;;;;;14.43;6.80;;;;;;;29.71;50.63;99447.72;1778890;79;20987;-70
2021/07/15 07:20:10;;;;;;;16.60;6.80;;;;;;;29.78;50.42;99446.70;1805050;79;21903;-70
2021/07/15 07:22:41;;;;;;;9.45;6.37;;;;;;;29.83;50.49;99455.45;1805194;79;20896;-70
2021/07/15 07:25:10;;;;;;;15.05;6.70;;;;;;;29.90;50.30;99452.99;1805141;79;21054;-70
2021/07/15 07:27:39;;;;;;;10.40;5.90;;;;;;;29.98;50.01;99455.76;1805125;79;20916;-71
2021/07/15 07:30:10;;;;;;;19.05;6.22;;;;;;;30.07;50.42;99451.42;1798223;79;20968;-68
2021/07/15 07:32:37;;;;;;;12.60;6.83;;;;;;;30.15;50.30;99447.70;1794132;80;21915;-69
2021/07/15 07:35:08;;;;;;;12.15;6.50;;;;;;;30.23;50.31;99447.68;1794044;80;21488;-69
2021/07/15 07:37:37;;;;;;;16.52;7.15;;;;;;;30.32;49.81;99447.75;1794050;80;20972;-70
2021/07/15 07:40:07;;;;;;;13.28;6.67;;;;;;;30.37;49.13;99446.36;1774537;80;20948;-70
2021/07/15 07:42:34;;;;;;;9.68;7.55;;;;;;;30.42;49.54;99450.04;1794393;80;20955;-71
2021/07/15 07:45:01;;;;;;;12.73;6.08;;;;;;;30.48;49.77;99450.25;1794156;80;21106;-71
2021/07/15 07:47:28;;;;;;;7.30;5.83;;;;;;;30.54;50.09;99444.14;1793861;80;20864;-70
2021/07/15 07:49:57;;;;;;;13.65;6.20;;;;;;;30.58;48.99;99449.70;1793668;80;20972;-71
2021/07/15 07:52:23;;;;;;;10.90;6.50;;;;;;;30.63;50.21;99453.98;1794175;80;21003;-70
2021/07/15 07:54:51;;;;;;;17.15;6.12;;;;;;;30.68;49.16;99450.56;1794104;80;21043;-71
2021/07/15 07:57:22;;;;;;;16.82;6.78;;;;;;;30.68;46.88;99457.05;1793886;79;20959;-72
2021/07/15 07:59:49;;;;;;;14.07;6.55;;;;;;;30.71;47.96;99451.85;1794474;79;20908;-71
2021/07/15 08:02:17;;;;;;;10.82;6.15;;;;;;;30.78;48.00;99456.48;1732685;82;21543;-70
2021/07/15 08:04:43;;;;;;;14.00;6.37;;;;;;;30.88;47.13;99456.59;1735114;82;21017;-71
2021/07/15 08:07:14;;;;;;;10.80;6.25;;;;;;;30.97;47.70;99448.91;1735082;82;21064;-72
2021/07/15 08:09:43;;;;;;;8.70;6.37;;;;;;;31.04;46.73;99451.30;1735308;81;21671;-71
2021/07/15 08:12:07;;;;;;;8.88;5.53;;;;;;;31.11;46.26;99455.30;1733921;82;21387;-70
2021/07/15 08:14:35;;;;;;;7.70;5.42;;;;;;;31.16;45.12;99456.12;1735148;82;20978;-70
2021/07/15 08:17:02;;;;;;;20.52;5.70;;;;;;;31.23;44.31;99452.21;1714372;82;21061;-71
2021/07/15 08:19:33;;;;;;;10.75;6.75;;;;;;;31.27;45.21;99446.39;1735059;82;20989;-71
2021/07/15 08:22:01;;;;;;;11.83;5.58;;;;;;;31.33;44.13;99458.11;1735362;82;21086;-72
2021/07/15 08:24:30;;;;;;;13.28;6.28;;;;;;;31.43;43.77;99450.44;1735103;82;20905;-70
2021/07/15 08:26:57;;;;;;;11.95;6.17;;;;;;;31.49;43.78;99446.98;1735255;82;20997;-71
2021/07/15 08:29:28;;;;;;;15.93;5.90;;;;;;;31.58;44.10;99450.66;1727468;81;21431;-70
2021/07/15 08:31:54;;;;;;;10.48;5.95;;;;;;;31.65;44.22;99446.72;1765090;81;20989;-70
2021/07/15 08:34:24;;;;;;;12.00;5.67;;;;;;;31.76;43.08;99435.53;1744156;81;21712;-69
2021/07/15 08:36:54;;;;;;;9.85;5.45;;;;;;;31.87;42.39;99445.06;1753326;81;20972;-71
2021/07/15 08:39:25;;;;;;;12.80;5.55;;;;;;;31.90;42.09;99443.46;1752891;81;21029;-69
2021/07/15 08:41:54;;;;;;;19.12;7.35;;;;;;;31.94;42.22;99445.54;1749254;81;21012;-69
2021/07/15 08:44:21;;;;;;;10.08;6.20;;;;;;;31.95;42.33;99449.19;1735252;82;21041;-70
2021/07/15 08:46:50;;;;;;;10.08;5.90;;;;;;;31.90;41.41;99444.11;1735330;81;20957;-69
2021/07/15 08:49:19;;;;;;;10.50;5.62;;;;;;;31.85;41.70;99443.31;1714212;82;20914;-71
2021/07/15 08:51:47;;;;;;;10.68;5.60;;;;;;;31.84;41.60;99443.93;1746921;81;20985;-71
2021/07/15 08:54:17;;;;;;;10.88;5.60;;;;;;;31.83;42.24;99441.70;1741071;81;20949;-70
2021/07/15 08:56:47;;;;;;;10.98;5.72;;;;;;;31.88;42.46;99440.94;1736922;81;21001;-71
2021/07/15 08:59:17;;;;;;;8.75;5.62;;;;;;;31.94;42.73;99441.27;1735729;81;21150;-69
2021/07/15 09:01:49;;;;;;;7.12;5.87;;;;;;;31.99;42.10;99434.18;1739079;81;20926;-70
2021/07/15 09:04:20;;;;;;;9.85;5.80;;;;;;;32.04;42.27;99438.48;1734977;82;21104;-70
2021/07/15 09:06:47;;;;;;;10.48;6.05;;;;;;;32.10;41.96;99433.73;1713918;82;20946;-71
2021/07/15 09:09:15;;;;;;;20.05;5.87;;;;;;;32.19;42.15;99433.73;1735029;82;21053;-71
2021/07/15 09:11:48;;;;;;;15.10;6.65;;;;;;;32.31;42.40;99439.13;1734912;82;21530;-69
2021/07/15 09:14:22;;;;;;;8.73;6.35;;;;;;;32.36;41.50;99439.14;1735036;82;20960;-70
2021/07/15 09:16:57;;;;;;;8.73;5.67;;;;;;;32.33;41.68;99427.90;1735051;82;21013;-71
2021/07/15 09:19:26;;;;;;;7.45;5.95;;;;;;;32.33;41.96;99428.67;1734880;82;20890;-71
2021/07/15 09:22:08;;;;;;;12.65;6.08;;;;;;;32.40;41.79;99430.41;1714923;82;21020;-72
2021/07/15 09:24:41;;;;;;;11.15;5.67;;;;;;;32.47;41.10;99425.03;1727453;82;22351;-70
2021/07/15 09:27:21;;;;;;;13.62;5.70;;;;;;;32.51;41.76;99431.38;1734125;82;20989;-69
2021/07/15 09:30:09;;;;;;;9.98;5.85;;;;;;;32.61;41.88;99430.76;1736952;82;20894;-72
2021/07/15 09:33:00;;;;;;;12.40;5.70;;;;;;;32.67;40.87;99413.96;1805108;79;21384;-72
2021/07/15 09:35:37;;;;;;;8.65;5.30;;;;;;;32.74;40.79;99417.12;1804667;79;20951;-70
2021/07/15 09:38:24;;;;;;;8.83;5.70;;;;;;;32.84;40.24;99418.55;1804934;79;20951;-69
2021/07/15 09:41:01;;;;;;;12.33;5.60;;;;;;;32.94;39.67;99422.16;1804883;79;20900;-69
2021/07/15 09:43:37;;;;;;;8.85;5.33;;;;;;;33.01;39.03;99418.98;1805122;79;21497;-73
2021/07/15 09:46:18;;;;;;;19.42;7.03;;;;;;;33.05;38.48;99417.39;1804914;79;20955;-70
2021/07/15 09:49:08;;;;;;;12.93;5.75;;;;;;;33.10;38.76;99413.27;1805034;79;21010;-72
2021/07/15 09:51:40;;;;;;;6.65;5.42;;;;;;;33.18;38.48;99414.36;1836856;78;21456;-71
2021/07/15 09:54:14;;;;;;;9.90;5.08;;;;;;;33.24;39.04;99412.42;1814051;78;21386;-71
2021/07/15 09:56:51;;;;;;;8.83;5.10;;;;;;;33.26;38.36;99412.73;1804972;79;20919;-71
2021/07/15 09:59:20;;;;;;;10.90;5.08;;;;;;;33.24;37.48;99411.80;1811825;78;21405;-71
2021/07/15 10:01:51;;;;;;;5.55;4.70;;;;;;;33.31;37.15;99416.36;1838053;78;21126;-70
2021/07/15 10:04:25;;;;;;;9.18;4.67;;;;;;;33.38;37.04;99412.38;1837807;78;21063;-70
2021/07/15 10:06:57;;;;;;;8.30;4.90;;;;;;;33.46;36.58;99411.38;1838072;78;20991;-70
2021/07/15 10:09:30;;;;;;;9.08;5.20;;;;;;;33.56;36.48;99412.14;1837154;78;20821;-70
2021/07/15 10:12:01;;;;;;;10.28;4.75;;;;;;;33.63;36.98;99415.42;1810080;78;20908;-71
2021/07/15 10:14:37;;;;;;;11.97;5.00;;;;;;;33.60;36.81;99414.16;1805090;79;20853;-71
2021/07/15 10:17:08;;;;;;;12.10;5.60;;;;;;;33.62;36.76;99410.20;1776719;79;21011;-70
2021/07/15 10:19:35;;;;;;;8.23;6.10;;;;;;;33.67;36.47;99409.56;1830517;78;20960;-70
2021/07/15 10:22:10;;;;;;;10.93;5.28;;;;;;;33.63;36.52;99408.91;1837726;78;20960;-71
2021/07/15 10:24:37;;;;;;;7.35;5.22;;;;;;;33.46;36.86;99406.47;1837932;77;20976;-72
2021/07/15 10:27:11;;;;;;;9.20;4.75;;;;;;;33.39;37.16;99400.47;1837815;78;20888;-72
2021/07/15 10:29:44;;;;;;;9.33;5.05;;;;;;;33.33;37.41;99400.98;1836957;78;20857;-73
2021/07/15 10:32:21;;;;;;;7.05;5.70;;;;;;;33.24;38.11;99401.81;1826508;78;22034;-72
2021/07/15 10:34:52;;;;;;;10.70;5.15;;;;;;;33.35;37.88;99401.92;1826388;78;20865;-71
2021/07/15 10:37:16;;;;;;;7.90;5.40;;;;;;;33.43;37.67;99398.87;1826299;78;20924;-72
2021/07/15 10:39:47;;;;;;;16.02;5.90;;;;;;;33.49;37.32;99399.02;1799618;78;20943;-73
2021/07/15 10:42:15;;;;;;;10.13;5.25;;;;;;;33.52;37.43;99397.38;1774625;80;20953;-71
2021/07/15 10:44:43;;;;;;;7.33;5.60;;;;;;;33.59;37.71;99395.47;1794120;80;20951;-73
2021/07/15 10:47:13;;;;;;;8.88;5.35;;;;;;;33.57;37.26;99395.95;1774752;80;20936;-70
2021/07/15 10:49:40;;;;;;;8.23;5.00;;;;;;;33.60;36.70;99397.03;1794094;80;20833;-70
2021/07/15 10:52:13;;;;;;;7.28;5.45;;;;;;;33.59;36.43;99392.61;1774438;80;20906;-70
2021/07/15 10:54:46;;;;;;;6.50;4.78;;;;;;;33.61;36.82;99388.61;1774366;80;20967;-69
2021/07/15 10:57:21;;;;;;;11.45;5.17;;;;;;;33.70;37.44;99390.03;1775916;80;20917;-72
2021/07/15 10:59:50;;;;;;;9.47;5.00;;;;;;;33.81;37.06;99396.64;1793737;79;22338;-72
2021/07/15 11:02:25;;;;;;;8.55;4.60;;;;;;;33.87;36.24;99393.25;1793917;80;21026;-72
2021/07/15 11:04:53;;;;;;;9.18;5.72;;;;;;;33.87;36.26;99387.55;1774929;80;20912;-73
2021/07/15 11:07:31;;;;;;;10.55;4.97;;;;;;;33.88;35.61;99383.40;1794114;80;21115;-69
2021/07/15 11:10:22;;;;;;;8.28;5.33;;;;;;;33.91;35.15;99383.70;1794343;80;20944;-70
2021/07/15 11:12:58;;;;;;;14.10;6.28;;;;;;;33.97;35.45;99381.13;1794094;79;20876;-70
2021/07/15 11:15:52;;;;;;;16.05;5.55;;;;;;;34.01;35.36;99380.94;1775154;80;20947;-71
2021/07/15 11:19:18;;;;;;;8.15;4.55;;;;;;;34.02;35.24;99376.02;1793941;80;20951;-70
2021/07/15 11:21:32;;;;;;;12.65;5.00;;;;;;;34.03;36.72;99371.25;1752099;81;21012;-71
2021/07/15 11:24:09;;;;;;;10.80;4.95;;;;;;;34.11;36.17;99375.31;1771715;80;20865;-72
2021/07/15 11:26:40;;;;;;;9.40;5.12;;;;;;;34.16;35.43;99373.83;1772234;81;20996;-72
2021/07/15 11:29:12;;;;;;;7.60;4.37;;;;;;;34.16;36.41;99366.69;1772049;80;21058;-73
2021/07/15 11:31:49;;;;;;;12.13;5.30;;;;;;;34.14;36.12;99361.33;1762907;80;20876;-69
2021/07/15 11:34:50;;;;;;;11.75;5.90;;;;;;;34.16;36.00;99358.12;1790386;78;21011;-72
2021/07/15 11:37:34;;;;;;;10.23;5.33;;;;;;;34.25;35.59;99364.42;1814749;78;21012;-72
2021/07/15 11:40:08;;;;;;;12.47;6.17;;;;;;;34.32;35.10;99361.83;1797096;78;20893;-70
2021/07/15 11:42:41;;;;;;;6.50;4.42;;;;;;;34.26;34.40;99352.36;1811757;78;21426;-71
2021/07/15 11:45:12;;;;;;;6.80;5.37;;;;;;;34.20;35.16;99351.62;1826628;78;20850;-69